sensor_id;sensor_type;location;lat;lon;timestamp;P1;durP1;ratioP1;P2;durP2;ratioP2
30000;SDS011;16845;48.670;9.000;2022-09-09T00:00:40;4.28;;;1.20;;
30000;SDS011;16845;48.670;9.000;2022-09-09T00:03:14;1.90;;;1.13;;
30000;SDS011;16845;48.670;9.000;2022-09-09T00:05:50;8.70;;;1.40;;
30000;SDS011;16845;48.670;9.000;2022-09-09T00:08:28;5.03;;;1.40;;
30000;SDS011;16845;48.670;9.000;2022-09-09T00:11:05;6.55;;;1.20;;
30000;SDS011;16845;48.670;9.000;2022-09-09T00:13:38;2.80;;;1.23;;
30000;SDS011;16845;48.670;9.000;2022-09-09T00:16:15;6.13;;;1.58;;
30000;SDS011;16845;48.670;9.000;2022-09-09T00:18:51;6.38;;;1.10;;
30000;SDS011;16845;48.670;9.000;2022-09-09T00:21:28;5.03;;;1.45;;
30000;SDS011;16845;48.670;9.000;2022-09-09T00:24:00;3.42;;;1.30;;
30000;SDS011;16845;48.670;9.000;2022-09-09T00:26:38;2.70;;;1.30;;
30000;SDS011;16845;48.670;9.000;2022-09-09T00:29:10;7.55;;;1.42;;
30000;SDS011;16845;48.670;9.000;2022-09-09T00:31:46;6.85;;;2.40;;
30000;SDS011;16845;48.670;9.000;2022-09-09T00:34:14;4.43;;;1.33;;
30000;SDS011;16845;48.670;9.000;2022-09-09T00:36:47;3.47;;;1.17;;
30000;SDS011;16845;48.670;9.000;2022-09-09T00:39:19;3.45;;;1.10;;
30000;SDS011;16845;48.670;9.000;2022-09-09T00:41:56;3.10;;;1.23;;
30000;SDS011;16845;48.670;9.000;2022-09-09T00:44:37;4.07;;;1.13;;
30000;SDS011;16845;48.670;9.000;2022-09-09T00:47:12;3.90;;;1.30;;
30000;SDS011;16845;48.670;9.000;2022-09-09T00:49:58;7.00;;;1.50;;
30000;SDS011;16845;48.670;9.000;2022-09-09T00:52:34;8.30;;;1.08;;
30000;SDS011;16845;48.670;9.000;2022-09-09T00:55:08;5.15;;;1.45;;
30000;SDS011;16845;48.670;9.000;2022-09-09T00:57:42;6.22;;;1.02;;
30000;SDS011;16845;48.670;9.000;2022-09-09T01:00:16;3.60;;;1.10;;
30000;SDS011;16845;48.670;9.000;2022-09-09T01:06:00;2.90;;;0.90;;
30000;SDS011;16845;48.670;9.000;2022-09-09T01:08:39;4.28;;;1.02;;
30000;SDS011;16845;48.670;9.000;2022-09-09T01:11:43;3.55;;;1.23;;
30000;SDS011;16845;48.670;9.000;2022-09-09T01:17:09;4.75;;;1.25;;
30000;SDS011;16845;48.670;9.000;2022-09-09T01:19:45;3.28;;;1.45;;
30000;SDS011;16845;48.670;9.000;2022-09-09T01:22:26;2.20;;;1.23;;
30000;SDS011;16845;48.670;9.000;2022-09-09T01:28:00;2.67;;;1.23;;
30000;SDS011;16845;48.670;9.000;2022-09-09T01:30:31;5.53;;;1.30;;
30000;SDS011;16845;48.670;9.000;2022-09-09T01:33:00;7.45;;;1.70;;
30000;SDS011;16845;48.670;9.000;2022-09-09T01:35:32;2.33;;;1.15;;
30000;SDS011;16845;48.670;9.000;2022-09-09T01:38:06;5.03;;;2.22;;
30000;SDS011;16845;48.670;9.000;2022-09-09T01:40:34;4.40;;;1.10;;
30000;SDS011;16845;48.670;9.000;2022-09-09T01:43:04;1.73;;;1.02;;
30000;SDS011;16845;48.670;9.000;2022-09-09T01:45:33;6.85;;;1.55;;
30000;SDS011;16845;48.670;9.000;2022-09-09T01:48:02;2.33;;;1.10;;
30000;SDS011;16845;48.670;9.000;2022-09-09T01:50:30;5.88;;;1.33;;
30000;SDS011;16845;48.670;9.000;2022-09-09T01:52:59;4.22;;;1.10;;
30000;SDS011;16845;48.670;9.000;2022-09-09T01:55:29;3.42;;;1.30;;
30000;SDS011;16845;48.670;9.000;2022-09-09T01:58:02;2.00;;;1.15;;
30000;SDS011;16845;48.670;9.000;2022-09-09T02:00:45;2.88;;;1.35;;
30000;SDS011;16845;48.670;9.000;2022-09-09T02:03:25;3.58;;;1.20;;
30000;SDS011;16845;48.670;9.000;2022-09-09T02:05:58;7.03;;;1.25;;
30000;SDS011;16845;48.670;9.000;2022-09-09T02:08:33;9.30;;;1.55;;
30000;SDS011;16845;48.670;9.000;2022-09-09T02:11:09;3.78;;;1.77;;
30000;SDS011;16845;48.670;9.000;2022-09-09T02:13:41;1.55;;;1.05;;
30000;SDS011;16845;48.670;9.000;2022-09-09T02:16:12;4.22;;;1.48;;
30000;SDS011;16845;48.670;9.000;2022-09-09T02:18:48;6.38;;;1.02;;
30000;SDS011;16845;48.670;9.000;2022-09-09T02:21:18;3.60;;;1.15;;
30000;SDS011;16845;48.670;9.000;2022-09-09T02:23:48;3.50;;;1.30;;
30000;SDS011;16845;48.670;9.000;2022-09-09T02:26:18;2.65;;;1.05;;
30000;SDS011;16845;48.670;9.000;2022-09-09T02:28:51;5.88;;;1.20;;
30000;SDS011;16845;48.670;9.000;2022-09-09T02:31:23;5.90;;;1.45;;
30000;SDS011;16845;48.670;9.000;2022-09-09T02:33:53;2.70;;;1.20;;
30000;SDS011;16845;48.670;9.000;2022-09-09T02:36:24;2.53;;;1.00;;
30000;SDS011;16845;48.670;9.000;2022-09-09T02:38:55;3.05;;;1.10;;
30000;SDS011;16845;48.670;9.000;2022-09-09T02:41:24;1.83;;;0.90;;
30000;SDS011;16845;48.670;9.000;2022-09-09T02:43:59;2.95;;;1.00;;
30000;SDS011;16845;48.670;9.000;2022-09-09T02:46:32;4.97;;;1.20;;
30000;SDS011;16845;48.670;9.000;2022-09-09T02:49:09;1.88;;;0.98;;
30000;SDS011;16845;48.670;9.000;2022-09-09T02:51:40;4.05;;;1.10;;
30000;SDS011;16845;48.670;9.000;2022-09-09T02:54:17;2.53;;;1.00;;
30000;SDS011;16845;48.670;9.000;2022-09-09T02:56:53;1.65;;;0.80;;
30000;SDS011;16845;48.670;9.000;2022-09-09T02:59:24;9.93;;;1.83;;
30000;SDS011;16845;48.670;9.000;2022-09-09T03:01:53;2.85;;;0.88;;
30000;SDS011;16845;48.670;9.000;2022-09-09T03:04:21;2.88;;;1.00;;
30000;SDS011;16845;48.670;9.000;2022-09-09T03:06:50;9.00;;;1.48;;
30000;SDS011;16845;48.670;9.000;2022-09-09T03:09:18;4.78;;;1.33;;
30000;SDS011;16845;48.670;9.000;2022-09-09T03:11:46;7.93;;;0.90;;
30000;SDS011;16845;48.670;9.000;2022-09-09T03:14:14;2.95;;;1.05;;
30000;SDS011;16845;48.670;9.000;2022-09-09T03:16:44;2.97;;;1.20;;
30000;SDS011;16845;48.670;9.000;2022-09-09T03:19:12;4.93;;;1.10;;
30000;SDS011;16845;48.670;9.000;2022-09-09T03:21:40;4.93;;;1.40;;
30000;SDS011;16845;48.670;9.000;2022-09-09T03:24:08;4.00;;;1.05;;
30000;SDS011;16845;48.670;9.000;2022-09-09T03:26:36;5.50;;;1.20;;
30000;SDS011;16845;48.670;9.000;2022-09-09T03:29:04;5.00;;;1.30;;
30000;SDS011;16845;48.670;9.000;2022-09-09T03:31:32;4.57;;;1.20;;
30000;SDS011;16845;48.670;9.000;2022-09-09T03:34:03;4.28;;;0.82;;
30000;SDS011;16845;48.670;9.000;2022-09-09T03:36:31;5.80;;;0.95;;
30000;SDS011;16845;48.670;9.000;2022-09-09T03:38:59;2.33;;;0.95;;
30000;SDS011;16845;48.670;9.000;2022-09-09T03:41:29;1.25;;;1.05;;
30000;SDS011;16845;48.670;9.000;2022-09-09T03:43:57;5.85;;;1.00;;
30000;SDS011;16845;48.670;9.000;2022-09-09T03:46:26;8.77;;;1.20;;
30000;SDS011;16845;48.670;9.000;2022-09-09T03:48:53;1.85;;;0.88;;
30000;SDS011;16845;48.670;9.000;2022-09-09T03:51:23;1.45;;;1.10;;
30000;SDS011;16845;48.670;9.000;2022-09-09T03:53:51;4.65;;;1.25;;
30000;SDS011;16845;48.670;9.000;2022-09-09T03:56:20;3.58;;;0.95;;
30000;SDS011;16845;48.670;9.000;2022-09-09T03:58:48;1.25;;;0.70;;
30000;SDS011;16845;48.670;9.000;2022-09-09T04:01:16;2.80;;;1.05;;
30000;SDS011;16845;48.670;9.000;2022-09-09T04:03:44;1.30;;;1.00;;
30000;SDS011;16845;48.670;9.000;2022-09-09T04:06:13;5.60;;;1.30;;
30000;SDS011;16845;48.670;9.000;2022-09-09T04:08:42;3.08;;;1.27;;
30000;SDS011;16845;48.670;9.000;2022-09-09T04:11:11;4.65;;;1.08;;
30000;SDS011;16845;48.670;9.000;2022-09-09T04:13:39;12.40;;;2.35;;
30000;SDS011;16845;48.670;9.000;2022-09-09T04:16:08;7.60;;;1.50;;
30000;SDS011;16845;48.670;9.000;2022-09-09T04:18:39;2.90;;;1.33;;
30000;SDS011;16845;48.670;9.000;2022-09-09T04:21:08;2.70;;;1.23;;
30000;SDS011;16845;48.670;9.000;2022-09-09T04:23:36;7.18;;;1.10;;
30000;SDS011;16845;48.670;9.000;2022-09-09T04:26:05;4.68;;;1.63;;
30000;SDS011;16845;48.670;9.000;2022-09-09T04:28:35;3.42;;;1.50;;
30000;SDS011;16845;48.670;9.000;2022-09-09T04:31:04;6.10;;;1.65;;
30000;SDS011;16845;48.670;9.000;2022-09-09T04:33:33;5.25;;;1.30;;
30000;SDS011;16845;48.670;9.000;2022-09-09T04:36:06;2.55;;;1.27;;
30000;SDS011;16845;48.670;9.000;2022-09-09T04:38:34;4.85;;;1.33;;
30000;SDS011;16845;48.670;9.000;2022-09-09T04:41:02;4.10;;;1.02;;
30000;SDS011;16845;48.670;9.000;2022-09-09T04:43:32;3.95;;;1.35;;
30000;SDS011;16845;48.670;9.000;2022-09-09T04:46:00;2.65;;;1.50;;
30000;SDS011;16845;48.670;9.000;2022-09-09T04:48:28;5.28;;;1.60;;
30000;SDS011;16845;48.670;9.000;2022-09-09T04:50:57;2.08;;;1.30;;
30000;SDS011;16845;48.670;9.000;2022-09-09T04:53:27;3.45;;;1.58;;
30000;SDS011;16845;48.670;9.000;2022-09-09T04:56:02;4.22;;;1.48;;
30000;SDS011;16845;48.670;9.000;2022-09-09T04:58:31;2.42;;;1.20;;
30000;SDS011;16845;48.670;9.000;2022-09-09T05:01:04;4.97;;;1.30;;
30000;SDS011;16845;48.670;9.000;2022-09-09T05:03:33;4.80;;;1.42;;
30000;SDS011;16845;48.670;9.000;2022-09-09T05:06:02;4.68;;;1.50;;
30000;SDS011;16845;48.670;9.000;2022-09-09T05:08:31;6.40;;;1.27;;
30000;SDS011;16845;48.670;9.000;2022-09-09T05:10:59;6.88;;;1.70;;
30000;SDS011;16845;48.670;9.000;2022-09-09T05:13:27;7.10;;;1.40;;
30000;SDS011;16845;48.670;9.000;2022-09-09T05:15:56;5.40;;;1.70;;
30000;SDS011;16845;48.670;9.000;2022-09-09T05:18:24;3.15;;;1.55;;
30000;SDS011;16845;48.670;9.000;2022-09-09T05:20:52;5.72;;;1.40;;
30000;SDS011;16845;48.670;9.000;2022-09-09T05:23:26;3.40;;;1.55;;
30000;SDS011;16845;48.670;9.000;2022-09-09T05:25:55;4.00;;;1.38;;
30000;SDS011;16845;48.670;9.000;2022-09-09T05:28:23;6.45;;;1.30;;
30000;SDS011;16845;48.670;9.000;2022-09-09T05:30:57;7.05;;;1.48;;
30000;SDS011;16845;48.670;9.000;2022-09-09T05:33:27;3.72;;;1.38;;
30000;SDS011;16845;48.670;9.000;2022-09-09T05:35:55;6.20;;;1.38;;
30000;SDS011;16845;48.670;9.000;2022-09-09T05:38:24;4.57;;;1.17;;
30000;SDS011;16845;48.670;9.000;2022-09-09T05:40:54;6.18;;;1.48;;
30000;SDS011;16845;48.670;9.000;2022-09-09T05:43:22;2.92;;;1.17;;
30000;SDS011;16845;48.670;9.000;2022-09-09T05:46:02;5.65;;;1.17;;
30000;SDS011;16845;48.670;9.000;2022-09-09T05:48:32;6.43;;;1.50;;
30000;SDS011;16845;48.670;9.000;2022-09-09T05:51:01;4.45;;;1.52;;
30000;SDS011;16845;48.670;9.000;2022-09-09T05:53:30;5.65;;;1.50;;
30000;SDS011;16845;48.670;9.000;2022-09-09T05:56:00;3.45;;;1.30;;
30000;SDS011;16845;48.670;9.000;2022-09-09T05:58:30;11.60;;;1.85;;
30000;SDS011;16845;48.670;9.000;2022-09-09T06:01:04;5.63;;;1.45;;
30000;SDS011;16845;48.670;9.000;2022-09-09T06:03:33;3.33;;;1.15;;
30000;SDS011;16845;48.670;9.000;2022-09-09T06:06:02;4.28;;;1.63;;
30000;SDS011;16845;48.670;9.000;2022-09-09T06:08:32;5.65;;;1.20;;
30000;SDS011;16845;48.670;9.000;2022-09-09T06:11:01;4.18;;;1.60;;
30000;SDS011;16845;48.670;9.000;2022-09-09T06:13:30;4.22;;;1.27;;
30000;SDS011;16845;48.670;9.000;2022-09-09T06:15:59;3.47;;;1.35;;
30000;SDS011;16845;48.670;9.000;2022-09-09T06:18:28;4.53;;;1.45;;
30000;SDS011;16845;48.670;9.000;2022-09-09T06:20:56;8.82;;;1.58;;
30000;SDS011;16845;48.670;9.000;2022-09-09T06:23:26;5.38;;;1.60;;
30000;SDS011;16845;48.670;9.000;2022-09-09T06:26:04;3.38;;;1.45;;
30000;SDS011;16845;48.670;9.000;2022-09-09T06:28:34;7.85;;;1.63;;
30000;SDS011;16845;48.670;9.000;2022-09-09T06:31:04;2.03;;;1.30;;
30000;SDS011;16845;48.670;9.000;2022-09-09T06:33:36;3.33;;;1.38;;
30000;SDS011;16845;48.670;9.000;2022-09-09T06:36:07;2.20;;;1.17;;
30000;SDS011;16845;48.670;9.000;2022-09-09T06:38:38;7.05;;;1.40;;
30000;SDS011;16845;48.670;9.000;2022-09-09T06:41:07;5.15;;;1.08;;
30000;SDS011;16845;48.670;9.000;2022-09-09T06:43:36;4.38;;;1.40;;
30000;SDS011;16845;48.670;9.000;2022-09-09T06:46:05;2.67;;;1.15;;
30000;SDS011;16845;48.670;9.000;2022-09-09T06:48:38;5.68;;;1.33;;
30000;SDS011;16845;48.670;9.000;2022-09-09T06:51:07;2.50;;;1.27;;
30000;SDS011;16845;48.670;9.000;2022-09-09T06:53:37;4.22;;;1.50;;
30000;SDS011;16845;48.670;9.000;2022-09-09T06:56:17;7.30;;;1.90;;
30000;SDS011;16845;48.670;9.000;2022-09-09T06:58:47;3.58;;;0.95;;
30000;SDS011;16845;48.670;9.000;2022-09-09T07:01:16;4.50;;;0.90;;
30000;SDS011;16845;48.670;9.000;2022-09-09T07:03:47;3.03;;;1.10;;
30000;SDS011;16845;48.670;9.000;2022-09-09T07:06:18;4.30;;;1.30;;
30000;SDS011;16845;48.670;9.000;2022-09-09T07:08:50;2.40;;;0.80;;
30000;SDS011;16845;48.670;9.000;2022-09-09T07:11:22;5.75;;;1.45;;
30000;SDS011;16845;48.670;9.000;2022-09-09T07:13:51;6.50;;;1.40;;
30000;SDS011;16845;48.670;9.000;2022-09-09T07:16:20;7.10;;;1.40;;
30000;SDS011;16845;48.670;9.000;2022-09-09T07:18:52;7.65;;;1.42;;
30000;SDS011;16845;48.670;9.000;2022-09-09T07:21:24;5.43;;;1.30;;
30000;SDS011;16845;48.670;9.000;2022-09-09T07:23:53;6.78;;;1.75;;
30000;SDS011;16845;48.670;9.000;2022-09-09T07:26:22;5.28;;;1.27;;
30000;SDS011;16845;48.670;9.000;2022-09-09T07:28:51;6.18;;;1.85;;
30000;SDS011;16845;48.670;9.000;2022-09-09T07:31:20;4.15;;;1.30;;
30000;SDS011;16845;48.670;9.000;2022-09-09T07:33:49;2.45;;;1.00;;
30000;SDS011;16845;48.670;9.000;2022-09-09T07:36:19;6.60;;;1.05;;
30000;SDS011;16845;48.670;9.000;2022-09-09T07:38:49;3.80;;;1.33;;
30000;SDS011;16845;48.670;9.000;2022-09-09T07:41:19;6.28;;;1.38;;
30000;SDS011;16845;48.670;9.000;2022-09-09T07:43:49;2.10;;;1.08;;
30000;SDS011;16845;48.670;9.000;2022-09-09T07:46:18;5.15;;;1.35;;
30000;SDS011;16845;48.670;9.000;2022-09-09T07:48:48;2.63;;;1.35;;
30000;SDS011;16845;48.670;9.000;2022-09-09T07:51:20;5.70;;;1.02;;
30000;SDS011;16845;48.670;9.000;2022-09-09T07:53:51;5.80;;;1.55;;
30000;SDS011;16845;48.670;9.000;2022-09-09T07:56:20;2.65;;;1.13;;
30000;SDS011;16845;48.670;9.000;2022-09-09T07:58:48;4.22;;;1.10;;
30000;SDS011;16845;48.670;9.000;2022-09-09T08:01:18;7.40;;;1.70;;
30000;SDS011;16845;48.670;9.000;2022-09-09T08:03:52;3.60;;;1.23;;
30000;SDS011;16845;48.670;9.000;2022-09-09T08:06:23;2.53;;;0.98;;
30000;SDS011;16845;48.670;9.000;2022-09-09T08:08:51;3.50;;;1.00;;
30000;SDS011;16845;48.670;9.000;2022-09-09T08:11:21;2.83;;;1.08;;
30000;SDS011;16845;48.670;9.000;2022-09-09T08:13:50;4.40;;;1.10;;
30000;SDS011;16845;48.670;9.000;2022-09-09T08:16:25;3.35;;;1.30;;
30000;SDS011;16845;48.670;9.000;2022-09-09T08:18:54;2.00;;;0.70;;
30000;SDS011;16845;48.670;9.000;2022-09-09T08:21:24;6.18;;;1.67;;
30000;SDS011;16845;48.670;9.000;2022-09-09T08:23:54;3.47;;;1.10;;
30000;SDS011;16845;48.670;9.000;2022-09-09T08:26:24;2.63;;;1.38;;
30000;SDS011;16845;48.670;9.000;2022-09-09T08:28:54;4.18;;;1.25;;
30000;SDS011;16845;48.670;9.000;2022-09-09T08:31:24;3.05;;;0.82;;
30000;SDS011;16845;48.670;9.000;2022-09-09T08:33:54;5.50;;;0.98;;
30000;SDS011;16845;48.670;9.000;2022-09-09T08:36:25;1.67;;;0.77;;
30000;SDS011;16845;48.670;9.000;2022-09-09T08:38:55;6.47;;;1.80;;
30000;SDS011;16845;48.670;9.000;2022-09-09T08:44:44;2.90;;;0.80;;
30000;SDS011;16845;48.670;9.000;2022-09-09T08:47:23;5.72;;;1.10;;
30000;SDS011;16845;48.670;9.000;2022-09-09T08:50:02;4.30;;;1.02;;
30000;SDS011;16845;48.670;9.000;2022-09-09T08:52:42;10.10;;;1.50;;
30000;SDS011;16845;48.670;9.000;2022-09-09T08:55:20;5.95;;;1.48;;
30000;SDS011;16845;48.670;9.000;2022-09-09T08:57:54;4.78;;;1.20;;
30000;SDS011;16845;48.670;9.000;2022-09-09T09:00:26;5.55;;;1.08;;
30000;SDS011;16845;48.670;9.000;2022-09-09T09:03:03;7.50;;;1.40;;
30000;SDS011;16845;48.670;9.000;2022-09-09T09:05:37;5.35;;;1.38;;
30000;SDS011;16845;48.670;9.000;2022-09-09T09:08:17;6.50;;;1.30;;
30000;SDS011;16845;48.670;9.000;2022-09-09T09:10:53;5.90;;;1.60;;
30000;SDS011;16845;48.670;9.000;2022-09-09T09:13:25;12.10;;;1.63;;
30000;SDS011;16845;48.670;9.000;2022-09-09T09:16:10;3.63;;;0.90;;
30000;SDS011;16845;48.670;9.000;2022-09-09T09:21:14;3.20;;;0.82;;
30000;SDS011;16845;48.670;9.000;2022-09-09T09:23:50;4.45;;;1.38;;
30000;SDS011;16845;48.670;9.000;2022-09-09T09:26:23;3.80;;;0.70;;
30000;SDS011;16845;48.670;9.000;2022-09-09T09:28:54;2.10;;;0.90;;
30000;SDS011;16845;48.670;9.000;2022-09-09T09:31:23;3.10;;;0.80;;
30000;SDS011;16845;48.670;9.000;2022-09-09T09:33:53;5.15;;;1.20;;
30000;SDS011;16845;48.670;9.000;2022-09-09T09:36:23;4.57;;;1.40;;
30000;SDS011;16845;48.670;9.000;2022-09-09T09:39:02;3.83;;;0.98;;
30000;SDS011;16845;48.670;9.000;2022-09-09T09:41:51;2.53;;;0.88;;
30000;SDS011;16845;48.670;9.000;2022-09-09T09:44:25;2.85;;;0.93;;
30000;SDS011;16845;48.670;9.000;2022-09-09T09:47:05;5.20;;;1.00;;
30000;SDS011;16845;48.670;9.000;2022-09-09T09:49:34;3.30;;;1.15;;
30000;SDS011;16845;48.670;9.000;2022-09-09T09:52:02;3.55;;;0.77;;
30000;SDS011;16845;48.670;9.000;2022-09-09T09:54:34;6.00;;;1.35;;
30000;SDS011;16845;48.670;9.000;2022-09-09T09:57:09;6.32;;;1.38;;
30000;SDS011;16845;48.670;9.000;2022-09-09T09:59:38;3.42;;;1.30;;
30000;SDS011;16845;48.670;9.000;2022-09-09T10:02:13;3.13;;;1.08;;
30000;SDS011;16845;48.670;9.000;2022-09-09T10:04:43;3.83;;;1.13;;
30000;SDS011;16845;48.670;9.000;2022-09-09T10:07:12;8.18;;;1.35;;
30000;SDS011;16845;48.670;9.000;2022-09-09T10:09:47;4.88;;;1.20;;
30000;SDS011;16845;48.670;9.000;2022-09-09T10:12:22;6.53;;;1.10;;
30000;SDS011;16845;48.670;9.000;2022-09-09T10:14:59;4.85;;;1.27;;
30000;SDS011;16845;48.670;9.000;2022-09-09T10:17:36;4.60;;;1.67;;
30000;SDS011;16845;48.670;9.000;2022-09-09T10:20:16;8.38;;;1.25;;
30000;SDS011;16845;48.670;9.000;2022-09-09T10:22:52;5.30;;;1.20;;
30000;SDS011;16845;48.670;9.000;2022-09-09T10:25:33;3.53;;;2.03;;
30000;SDS011;16845;48.670;9.000;2022-09-09T10:28:30;5.95;;;1.40;;
30000;SDS011;16845;48.670;9.000;2022-09-09T10:31:12;3.60;;;1.35;;
30000;SDS011;16845;48.670;9.000;2022-09-09T10:33:49;4.65;;;1.67;;
30000;SDS011;16845;48.670;9.000;2022-09-09T10:36:24;3.75;;;1.30;;
30000;SDS011;16845;48.670;9.000;2022-09-09T10:38:57;9.68;;;1.60;;
30000;SDS011;16845;48.670;9.000;2022-09-09T10:41:34;5.55;;;1.35;;
30000;SDS011;16845;48.670;9.000;2022-09-09T10:44:17;7.03;;;1.50;;
30000;SDS011;16845;48.670;9.000;2022-09-09T10:46:54;3.33;;;1.10;;
30000;SDS011;16845;48.670;9.000;2022-09-09T10:52:20;4.60;;;1.33;;
30000;SDS011;16845;48.670;9.000;2022-09-09T10:54:55;7.13;;;1.50;;
30000;SDS011;16845;48.670;9.000;2022-09-09T10:57:29;3.92;;;1.98;;
30000;SDS011;16845;48.670;9.000;2022-09-09T11:00:05;4.93;;;1.70;;
30000;SDS011;16845;48.670;9.000;2022-09-09T11:05:10;2.88;;;1.33;;
30000;SDS011;16845;48.670;9.000;2022-09-09T11:07:50;3.72;;;0.98;;
30000;SDS011;16845;48.670;9.000;2022-09-09T11:10:23;6.05;;;0.93;;
30000;SDS011;16845;48.670;9.000;2022-09-09T11:12:59;3.30;;;0.80;;
30000;SDS011;16845;48.670;9.000;2022-09-09T11:15:32;6.85;;;1.15;;
30000;SDS011;16845;48.670;9.000;2022-09-09T11:18:06;5.72;;;1.10;;
30000;SDS011;16845;48.670;9.000;2022-09-09T11:20:40;1.55;;;0.70;;
30000;SDS011;16845;48.670;9.000;2022-09-09T11:23:10;5.90;;;1.15;;
30000;SDS011;16845;48.670;9.000;2022-09-09T11:25:41;1.13;;;0.70;;
30000;SDS011;16845;48.670;9.000;2022-09-09T11:28:24;3.83;;;0.65;;
30000;SDS011;16845;48.670;9.000;2022-09-09T11:31:07;0.98;;;0.70;;
30000;SDS011;16845;48.670;9.000;2022-09-09T11:33:51;2.58;;;0.40;;
30000;SDS011;16845;48.670;9.000;2022-09-09T11:36:31;1.38;;;0.35;;
30000;SDS011;16845;48.670;9.000;2022-09-09T11:39:23;3.60;;;0.45;;
30000;SDS011;16845;48.670;9.000;2022-09-09T11:42:06;1.20;;;0.35;;
30000;SDS011;16845;48.670;9.000;2022-09-09T11:44:44;0.60;;;0.30;;
30000;SDS011;16845;48.670;9.000;2022-09-09T11:47:16;0.90;;;0.50;;
30000;SDS011;16845;48.670;9.000;2022-09-09T11:49:49;1.52;;;0.40;;
30000;SDS011;16845;48.670;9.000;2022-09-09T11:52:21;1.58;;;0.40;;
30000;SDS011;16845;48.670;9.000;2022-09-09T11:54:51;0.82;;;0.40;;
30000;SDS011;16845;48.670;9.000;2022-09-09T11:57:26;0.30;;;0.30;;
30000;SDS011;16845;48.670;9.000;2022-09-09T12:00:00;1.80;;;0.50;;
30000;SDS011;16845;48.670;9.000;2022-09-09T12:02:30;1.17;;;0.40;;
30000;SDS011;16845;48.670;9.000;2022-09-09T12:04:59;0.28;;;0.25;;
30000;SDS011;16845;48.670;9.000;2022-09-09T12:07:32;3.42;;;0.70;;
30000;SDS011;16845;48.670;9.000;2022-09-09T12:10:04;3.08;;;0.52;;
30000;SDS011;16845;48.670;9.000;2022-09-09T12:12:46;1.20;;;0.80;;
30000;SDS011;16845;48.670;9.000;2022-09-09T12:15:20;1.50;;;0.40;;
30000;SDS011;16845;48.670;9.000;2022-09-09T12:17:56;1.50;;;0.55;;
30000;SDS011;16845;48.670;9.000;2022-09-09T12:20:31;0.93;;;0.40;;
30000;SDS011;16845;48.670;9.000;2022-09-09T12:25:56;1.35;;;0.47;;
30000;SDS011;16845;48.670;9.000;2022-09-09T12:28:39;1.67;;;0.40;;
30000;SDS011;16845;48.670;9.000;2022-09-09T12:31:14;1.00;;;0.40;;
30000;SDS011;16845;48.670;9.000;2022-09-09T12:33:48;0.50;;;0.43;;
30000;SDS011;16845;48.670;9.000;2022-09-09T12:36:16;3.50;;;0.80;;
30000;SDS011;16845;48.670;9.000;2022-09-09T12:38:49;1.25;;;0.80;;
30000;SDS011;16845;48.670;9.000;2022-09-09T12:41:19;3.33;;;0.73;;
30000;SDS011;16845;48.670;9.000;2022-09-09T12:43:48;5.60;;;0.70;;
30000;SDS011;16845;48.670;9.000;2022-09-09T12:46:22;1.05;;;0.50;;
30000;SDS011;16845;48.670;9.000;2022-09-09T12:48:58;4.75;;;0.90;;
30000;SDS011;16845;48.670;9.000;2022-09-09T12:51:26;3.67;;;0.68;;
30000;SDS011;16845;48.670;9.000;2022-09-09T12:53:56;2.80;;;1.48;;
30000;SDS011;16845;48.670;9.000;2022-09-09T12:56:25;2.40;;;0.70;;
30000;SDS011;16845;48.670;9.000;2022-09-09T12:58:56;3.95;;;0.98;;
30000;SDS011;16845;48.670;9.000;2022-09-09T13:01:27;3.15;;;0.70;;
30000;SDS011;16845;48.670;9.000;2022-09-09T13:03:57;3.15;;;1.10;;
30000;SDS011;16845;48.670;9.000;2022-09-09T13:06:25;5.65;;;1.65;;
30000;SDS011;16845;48.670;9.000;2022-09-09T13:08:55;4.60;;;0.60;;
30000;SDS011;16845;48.670;9.000;2022-09-09T13:11:25;3.28;;;1.05;;
30000;SDS011;16845;48.670;9.000;2022-09-09T13:13:56;1.85;;;0.77;;
30000;SDS011;16845;48.670;9.000;2022-09-09T13:16:27;1.58;;;0.77;;
30000;SDS011;16845;48.670;9.000;2022-09-09T13:18:58;3.08;;;0.68;;
30000;SDS011;16845;48.670;9.000;2022-09-09T13:21:31;1.52;;;0.43;;
30000;SDS011;16845;48.670;9.000;2022-09-09T13:24:00;3.00;;;0.73;;
30000;SDS011;16845;48.670;9.000;2022-09-09T13:26:30;1.77;;;0.60;;
30000;SDS011;16845;48.670;9.000;2022-09-09T13:29:07;4.72;;;0.70;;
30000;SDS011;16845;48.670;9.000;2022-09-09T13:31:45;2.42;;;0.85;;
30000;SDS011;16845;48.670;9.000;2022-09-09T13:34:13;1.73;;;0.50;;
30000;SDS011;16845;48.670;9.000;2022-09-09T13:36:54;2.65;;;0.80;;
30000;SDS011;16845;48.670;9.000;2022-09-09T13:39:25;2.10;;;0.68;;
30000;SDS011;16845;48.670;9.000;2022-09-09T13:41:53;2.58;;;0.60;;
30000;SDS011;16845;48.670;9.000;2022-09-09T13:44:21;5.13;;;0.88;;
30000;SDS011;16845;48.670;9.000;2022-09-09T13:47:01;2.83;;;0.75;;
30000;SDS011;16845;48.670;9.000;2022-09-09T13:49:35;3.47;;;0.80;;
30000;SDS011;16845;48.670;9.000;2022-09-09T13:52:04;2.80;;;0.68;;
30000;SDS011;16845;48.670;9.000;2022-09-09T13:54:36;2.40;;;0.80;;
30000;SDS011;16845;48.670;9.000;2022-09-09T13:57:04;4.45;;;0.80;;
30000;SDS011;16845;48.670;9.000;2022-09-09T13:59:32;5.50;;;0.70;;
30000;SDS011;16845;48.670;9.000;2022-09-09T14:02:21;2.42;;;0.70;;
30000;SDS011;16845;48.670;9.000;2022-09-09T14:04:50;3.25;;;0.73;;
30000;SDS011;16845;48.670;9.000;2022-09-09T14:07:21;1.20;;;0.47;;
30000;SDS011;16845;48.670;9.000;2022-09-09T14:09:49;1.67;;;0.68;;
30000;SDS011;16845;48.670;9.000;2022-09-09T14:12:18;2.40;;;0.57;;
30000;SDS011;16845;48.670;9.000;2022-09-09T14:14:46;2.03;;;0.35;;
30000;SDS011;16845;48.670;9.000;2022-09-09T14:17:14;1.40;;;0.40;;
30000;SDS011;16845;48.670;9.000;2022-09-09T14:19:43;0.68;;;0.40;;
30000;SDS011;16845;48.670;9.000;2022-09-09T14:22:11;1.75;;;0.50;;
30000;SDS011;16845;48.670;9.000;2022-09-09T14:24:39;5.22;;;0.52;;
30000;SDS011;16845;48.670;9.000;2022-09-09T14:27:08;1.48;;;0.50;;
30000;SDS011;16845;48.670;9.000;2022-09-09T14:29:35;0.55;;;0.43;;
30000;SDS011;16845;48.670;9.000;2022-09-09T14:32:03;1.73;;;0.73;;
30000;SDS011;16845;48.670;9.000;2022-09-09T14:34:37;1.50;;;0.55;;
30000;SDS011;16845;48.670;9.000;2022-09-09T14:37:08;1.98;;;0.80;;
30000;SDS011;16845;48.670;9.000;2022-09-09T14:39:35;5.22;;;1.02;;
30000;SDS011;16845;48.670;9.000;2022-09-09T14:42:04;0.90;;;0.57;;
30000;SDS011;16845;48.670;9.000;2022-09-09T14:44:32;5.65;;;0.63;;
30000;SDS011;16845;48.670;9.000;2022-09-09T14:47:00;4.20;;;0.60;;
30000;SDS011;16845;48.670;9.000;2022-09-09T14:49:28;0.82;;;0.50;;
30000;SDS011;16845;48.670;9.000;2022-09-09T14:51:56;1.92;;;0.68;;
30000;SDS011;16845;48.670;9.000;2022-09-09T14:54:25;5.03;;;1.42;;
30000;SDS011;16845;48.670;9.000;2022-09-09T14:56:54;3.53;;;0.73;;
30000;SDS011;16845;48.670;9.000;2022-09-09T14:59:23;3.33;;;1.00;;
30000;SDS011;16845;48.670;9.000;2022-09-09T15:01:51;2.13;;;0.85;;
30000;SDS011;16845;48.670;9.000;2022-09-09T15:04:19;2.80;;;1.02;;
30000;SDS011;16845;48.670;9.000;2022-09-09T15:06:48;2.42;;;0.85;;
30000;SDS011;16845;48.670;9.000;2022-09-09T15:09:18;3.22;;;1.08;;
30000;SDS011;16845;48.670;9.000;2022-09-09T15:11:48;2.78;;;0.82;;
30000;SDS011;16845;48.670;9.000;2022-09-09T15:14:16;5.85;;;0.85;;
30000;SDS011;16845;48.670;9.000;2022-09-09T15:16:49;2.80;;;0.60;;
30000;SDS011;16845;48.670;9.000;2022-09-09T15:19:16;3.85;;;0.73;;
30000;SDS011;16845;48.670;9.000;2022-09-09T15:21:44;4.97;;;0.82;;
30000;SDS011;16845;48.670;9.000;2022-09-09T15:24:12;4.40;;;0.80;;
30000;SDS011;16845;48.670;9.000;2022-09-09T15:26:40;3.33;;;0.77;;
30000;SDS011;16845;48.670;9.000;2022-09-09T15:29:09;2.67;;;0.70;;
30000;SDS011;16845;48.670;9.000;2022-09-09T15:31:37;4.47;;;0.60;;
30000;SDS011;16845;48.670;9.000;2022-09-09T15:34:05;2.67;;;0.95;;
30000;SDS011;16845;48.670;9.000;2022-09-09T15:36:34;2.42;;;0.60;;
30000;SDS011;16845;48.670;9.000;2022-09-09T15:39:04;1.83;;;0.60;;